Time;durP1;ratioP1;P1;durP2;ratioP2;P2;SDS_P1;SDS_P2;PMS_P1;PMS_P2;Temp;Humidity;BMP_temperature;BMP_pressure;BME280_temperature;BME280_humidity;BME280_pressure;Samples;Min_cycle;Max_cycle;Signal;HPM_P1;HPM_P2
2022/11/15 00:00:25;;;;;;;27.15;15.43;;;;;;;9.26;50.91;101102.84;7389590;19;20010;-59
2022/11/15 00:02:53;;;;;;;26.35;15.15;;;;;;;9.12;51.04;101108.50;7390831;19;20017;-59
2022/11/15 00:05:18;;;;;;;24.80;15.35;;;;;;;9.18;50.83;101109.09;7390954;19;20007;-58
2022/11/15 00:07:44;;;;;;;22.65;13.95;;;;;;;9.23;50.75;101108.94;7390637;19;20487;-58
2022/11/15 00:10:10;;;;;;;23.63;13.88;;;;;;;9.26;50.77;101100.13;7391462;19;20026;-60
2022/11/15 00:12:35;;;;;;;24.38;14.77;;;;;;;9.29;50.51;101096.75;7389875;19;20007;-59
2022/11/15 00:15:01;;;;;;;25.40;15.13;;;;;;;9.24;50.73;101097.72;7388873;19;20010;-59
2022/11/15 00:17:27;;;;;;;24.00;14.40;;;;;;;9.14;51.09;101092.63;7390068;19;19999;-60
2022/11/15 00:19:52;;;;;;;24.63;15.07;;;;;;;9.17;50.88;101094.69;7396310;19;20022;-59
2022/11/15 00:22:18;;;;;;;25.83;14.70;;;;;;;9.13;51.05;101092.94;7396984;19;20003;-59
2022/11/15 00:24:44;;;;;;;25.20;14.52;;;;;;;9.06;51.13;101096.94;7396645;19;19999;-59
2022/11/15 00:27:09;;;;;;;23.17;14.27;;;;;;;9.12;51.30;101097.59;7398448;19;19994;-59
2022/11/15 00:29:37;;;;;;;22.85;14.05;;;;;;;9.11;50.91;101097.91;7397890;19;19995;-59
2022/11/15 00:32:03;;;;;;;22.90;13.93;;;;;;;9.05;51.16;101100.81;7395809;19;20025;-59
2022/11/15 00:34:28;;;;;;;24.55;13.88;;;;;;;9.07;51.04;101100.50;7398076;19;20415;-59
2022/11/15 00:36:54;;;;;;;25.15;14.63;;;;;;;9.03;51.30;101104.97;7394579;19;20022;-59
2022/11/15 00:39:20;;;;;;;24.58;13.70;;;;;;;8.94;51.74;101112.38;7396837;19;20002;-60
2022/11/15 00:41:45;;;;;;;25.98;14.27;;;;;;;8.96;51.58;101115.56;7396826;19;20026;-59
2022/11/15 00:44:11;;;;;;;24.05;13.73;;;;;;;8.94;51.46;101115.88;7397767;19;20556;-59
2022/11/15 00:46:37;;;;;;;23.08;13.65;;;;;;;9.04;51.13;101117.47;7396591;19;20003;-59
2022/11/15 00:49:02;;;;;;;21.65;13.30;;;;;;;9.00;51.27;101119.22;7397365;19;20002;-59
2022/11/15 00:51:28;;;;;;;21.42;12.70;;;;;;;9.14;51.23;101117.13;7397114;19;19998;-59
2022/11/15 00:53:54;;;;;;;21.08;12.65;;;;;;;9.15;50.85;101113.28;7392882;19;20069;-58
2022/11/15 00:56:19;;;;;;;22.33;12.77;;;;;;;9.23;50.94;101120.66;7394740;19;19999;-59
2022/11/15 00:58:45;;;;;;;26.08;13.38;;;;;;;9.25;50.71;101126.56;7396559;19;19995;-58
2022/11/15 01:01:13;;;;;;;23.15;13.18;;;;;;;9.24;50.68;101110.53;7397903;19;20455;-60
2022/11/15 01:03:40;;;;;;;19.35;12.35;;;;;;;9.19;50.97;101114.22;7395102;19;19998;-59
2022/11/15 01:06:08;;;;;;;22.80;13.35;;;;;;;9.24;50.64;101108.59;7397339;19;20038;-60
2022/11/15 01:08:34;;;;;;;22.50;12.70;;;;;;;9.17;50.91;101111.03;7394538;19;20072;-59
2022/11/15 01:11:03;;;;;;;20.65;12.07;;;;;;;9.15;51.04;101110.56;7396089;19;20002;-59
2022/11/15 01:13:31;;;;;;;21.20;12.27;;;;;;;9.17;50.91;101110.25;7393617;19;20497;-58
2022/11/15 01:15:57;;;;;;;20.15;12.63;;;;;;;9.10;51.07;101108.03;7396396;19;19998;-59
2022/11/15 01:18:23;;;;;;;22.08;12.93;;;;;;;9.16;50.95;101112.16;7395473;19;20368;-59
2022/11/15 01:20:48;;;;;;;22.52;13.13;;;;;;;9.14;51.03;101106.22;7397074;19;20003;-58
2022/11/15 01:23:14;;;;;;;23.50;13.68;;;;;;;9.08;50.94;101102.91;7394977;19;20006;-58
2022/11/15 01:25:40;;;;;;;23.45;12.88;;;;;;;8.95;51.32;101103.06;7396454;19;19999;-59
2022/11/15 01:28:05;;;;;;;23.05;12.98;;;;;;;8.85;51.43;101105.00;7395875;19;19998;-58
2022/11/15 01:30:31;;;;;;;23.13;13.52;;;;;;;8.81;51.70;101098.59;7394515;19;20339;-58
2022/11/15 01:32:57;;;;;;;21.40;12.50;;;;;;;8.80;51.68;101094.28;7392907;19;19994;-58
2022/11/15 01:35:22;;;;;;;22.42;12.38;;;;;;;8.89;51.43;101089.63;7395548;19;20006;-58
2022/11/15 01:37:48;;;;;;;22.40;13.70;;;;;;;8.92;51.36;101087.41;7393526;19;19995;-58
2022/11/15 01:40:14;;;;;;;21.23;12.68;;;;;;;8.88;51.30;101088.03;7396268;19;20327;-57
2022/11/15 01:42:40;;;;;;;20.45;12.82;;;;;;;8.90;51.41;101085.78;7392538;19;20471;-58
2022/11/15 01:45:13;;;;;;;22.17;12.60;;;;;;;8.91;51.21;101081.13;7395543;19;20023;-58
2022/11/15 01:47:49;;;;;;;22.07;13.43;;;;;;;8.82;51.52;101072.19;7395443;19;20005;-57
2022/11/15 01:50:20;;;;;;;24.60;12.73;;;;;;;8.83;51.29;101063.72;7396267;19;20014;-58
2022/11/15 01:52:46;;;;;;;22.80;12.95;;;;;;;8.81;51.19;101055.03;7393199;19;20015;-58
2022/11/15 01:55:30;;;;;;;23.63;12.70;;;;;;;8.79;51.59;101057.28;7395414;19;20039;-59
2022/11/15 01:58:01;;;;;;;20.13;12.07;;;;;;;8.76;51.57;101057.13;7392534;19;20098;-58
2022/11/15 02:00:28;;;;;;;21.98;12.77;;;;;;;8.76;51.25;101055.22;7394986;19;20062;-58
2022/11/15 02:02:54;;;;;;;24.08;13.02;;;;;;;8.78;51.24;101050.25;7391895;19;20467;-58
2022/11/15 02:05:20;;;;;;;21.55;12.88;;;;;;;8.73;51.30;101044.97;7395433;19;19991;-58
2022/11/15 02:07:47;;;;;;;23.92;13.25;;;;;;;8.76;51.43;101049.75;7394940;19;20013;-58
2022/11/15 02:10:19;;;;;;;21.67;13.00;;;;;;;8.86;51.05;101040.47;7394717;19;20010;-59
2022/11/15 02:12:47;;;;;;;20.60;11.95;;;;;;;8.86;51.07;101032.31;7393999;19;20332;-58
2022/11/15 02:15:13;;;;;;;22.90;13.18;;;;;;;8.93;51.06;101037.25;7392830;19;19995;-57
2022/11/15 02:17:50;;;;;;;21.55;12.85;;;;;;;8.96;51.08;101044.78;7394153;19;20344;-59
2022/11/15 02:20:34;;;;;;;21.73;12.65;;;;;;;9.06;50.92;101045.22;7395744;19;20010;-59
2022/11/15 02:23:33;;;;;;;21.92;12.27;;;;;;;9.18;50.71;101052.72;7392417;19;20482;-59
2022/11/15 02:26:36;;;;;;;20.27;11.48;;;;;;;9.16;50.94;101038.63;7395686;19;20039;-59
2022/11/15 02:29:28;;;;;;;20.80;11.98;;;;;;;9.22;50.81;101037.31;7393981;19;20324;-59
2022/11/15 02:32:04;;;;;;;23.38;12.80;;;;;;;9.29;50.47;101030.59;7393122;19;20007;-59
2022/11/15 02:34:38;;;;;;;22.63;12.75;;;;;;;9.42;50.39;101024.13;7392052;19;20070;-59
2022/11/15 02:37:18;;;;;;;19.73;11.52;;;;;;;9.50;50.37;101031.44;7391700;19;20011;-59
2022/11/15 02:40:09;;;;;;;22.10;12.18;;;;;;;9.51;50.36;101033.03;7393399;19;20017;-59
2022/11/15 02:45:39;;;;;;;24.08;13.15;;;;;;;9.61;50.11;101032.69;7392957;19;20469;-59
2022/11/15 02:48:07;;;;;;;21.60;12.63;;;;;;;9.61;50.25;101032.69;7391636;19;19999;-59
2022/11/15 02:50:34;;;;;;;22.92;13.00;;;;;;;9.60;50.37;101030.28;7393310;19;19998;-57
2022/11/15 02:52:59;;;;;;;19.95;12.10;;;;;;;9.67;49.93;101036.03;7391710;19;20006;-57
2022/11/15 02:55:30;;;;;;;20.42;11.27;;;;;;;9.68;50.36;101029.44;7391556;19;20003;-58
2022/11/15 02:58:07;;;;;;;21.65;12.07;;;;;;;9.70;50.09;101029.94;7392434;19;20352;-58
2022/11/15 03:00:52;;;;;;;20.75;11.90;;;;;;;9.73;50.26;101028.47;7392676;19;20003;-58
2022/11/15 03:03:29;;;;;;;20.70;11.80;;;;;;;9.66;50.30;101034.44;7390400;19;20003;-58
2022/11/15 03:06:01;;;;;;;21.70;12.82;;;;;;;9.67;50.39;101029.75;7392664;19;20014;-57
2022/11/15 03:08:59;;;;;;;21.13;12.35;;;;;;;9.69;50.58;101025.59;7391951;19;20010;-58
2022/11/15 03:11:25;;;;;;;21.20;11.90;;;;;;;9.79;50.06;101029.88;7390214;19;20022;-57
2022/11/15 03:14:28;;;;;;;21.38;12.35;;;;;;;9.82;50.39;101031.94;7390745;19;20060;-58
2022/11/15 03:17:26;;;;;;;20.63;11.57;;;;;;;9.83;50.58;101019.91;7390874;19;20013;-57
2022/11/15 03:19:58;;;;;;;21.55;12.70;;;;;;;9.85;50.58;101023.09;7392214;19;20005;-57
2022/11/15 03:22:42;;;;;;;22.67;12.77;;;;;;;9.85;50.94;101023.09;7391153;19;20011;-57
2022/11/15 03:25:14;;;;;;;22.75;12.25;;;;;;;9.91;50.51;101024.50;7390688;19;20026;-57
2022/11/15 03:27:47;;;;;;;23.05;12.75;;;;;;;9.89;50.74;101017.78;7391570;19;20035;-57
2022/11/15 03:30:13;;;;;;;26.70;13.68;;;;;;;9.93;50.87;101015.97;7390470;19;19999;-58
2022/11/15 03:32:45;;;;;;;29.27;13.02;;;;;;;9.90;51.01;101020.19;7391400;19;20070;-58
2022/11/15 03:35:15;;;;;;;22.92;12.85;;;;;;;9.93;50.94;101010.53;7390285;19;20003;-57
2022/11/15 03:38:08;;;;;;;24.00;13.40;;;;;;;9.93;51.43;101010.53;7391911;19;20002;-57
2022/11/15 03:40:39;;;;;;;25.30;13.27;;;;;;;9.95;50.96;101011.00;7390017;19;20002;-57
2022/11/15 03:43:20;;;;;;;25.73;12.57;;;;;;;9.96;51.29;101005.22;7390866;19;20003;-57
2022/11/15 03:46:05;;;;;;;23.92;12.82;;;;;;;9.98;51.38;101007.59;7391399;19;20010;-59
2022/11/15 03:48:38;;;;;;;24.10;12.88;;;;;;;10.04;51.03;101000.84;7389120;19;20542;-59
2022/11/15 03:51:04;;;;;;;26.35;13.38;;;;;;;10.05;51.20;101002.44;7390609;19;19999;-58
2022/11/15 03:53:31;;;;;;;20.63;12.23;;;;;;;10.04;51.16;101000.84;7389999;19;20002;-57
2022/11/15 03:56:03;;;;;;;25.55;13.20;;;;;;;10.04;51.03;100994.59;7397018;19;20073;-57
2022/11/15 03:58:29;;;;;;;24.00;13.50;;;;;;;10.01;51.13;100996.03;7398126;19;20010;-58
2022/11/15 04:00:54;;;;;;;24.08;13.30;;;;;;;10.03;51.19;100990.25;7399328;19;20002;-58
2022/11/15 04:03:20;;;;;;;21.83;12.65;;;;;;;10.01;51.36;100996.81;7396003;19;20006;-58
2022/11/15 04:05:46;;;;;;;23.38;13.15;;;;;;;10.01;51.64;100993.31;7396351;19;20401;-57
2022/11/15 04:08:11;;;;;;;22.17;12.30;;;;;;;10.03;51.84;100999.22;7396382;19;20002;-58
2022/11/15 04:10:37;;;;;;;21.45;12.07;;;;;;;10.07;51.68;100999.34;7396821;19;20001;-59
2022/11/15 04:13:03;;;;;;;21.85;12.50;;;;;;;10.08;51.73;100987.31;7396740;19;20007;-57
2022/11/15 04:15:29;;;;;;;26.45;13.23;;;;;;;10.08;51.70;100990.06;7396871;19;20262;-57
2022/11/15 04:17:56;;;;;;;24.63;12.85;;;;;;;10.10;51.33;100988.59;7397504;19;20471;-59
2022/11/15 04:26:04;;;;;;;23.80;13.00;;;;;;;10.04;51.99;101000.84;7397993;19;19998;-58
2022/11/15 04:28:30;;;;;;;22.20;12.45;;;;;;;10.06;51.76;100986.88;7397588;19;20032;-58
2022/11/15 04:30:56;;;;;;;25.00;13.35;;;;;;;10.07;51.78;100996.63;7398615;19;20025;-58
2022/11/15 04:33:22;;;;;;;21.58;12.23;;;;;;;10.10;51.72;100998.69;7396322;19;20086;-58
2022/11/15 04:37:11;;;;;;;22.08;12.25;;;;;;;10.09;51.79;101003.34;7395112;19;20404;-58
2022/11/15 04:38:34;;;;;;;22.02;12.30;;;;;;;10.13;52.01;101008.94;7397372;19;20036;-58
2022/11/15 04:41:00;;;;;;;20.90;11.32;;;;;;;10.14;51.73;101005.09;7396081;19;20031;-58
2022/11/15 04:43:26;;;;;;;22.73;12.02;;;;;;;10.18;51.75;101006.81;7395872;19;20002;-58
2022/11/15 04:45:51;;;;;;;23.30;11.50;;;;;;;10.21;51.63;101008.06;7397286;19;20014;-58
2022/11/15 04:48:17;;;;;;;20.70;11.77;;;;;;;10.20;51.77;101001.00;7396432;19;20335;-58
2022/11/15 04:50:43;;;;;;;21.58;11.75;;;;;;;10.22;51.75;101000.69;7396492;19;19998;-58
2022/11/15 04:53:08;;;;;;;22.15;12.07;;;;;;;10.20;51.68;101001.00;7392215;19;20023;-56
2022/11/15 04:55:34;;;;;;;19.00;11.40;;;;;;;10.21;51.97;100997.16;7396822;19;20022;-56
2022/11/15 04:58:02;;;;;;;20.17;11.68;;;;;;;10.24;51.55;100999.22;7395475;19;20009;-56
2022/11/15 05:00:28;;;;;;;21.48;10.82;;;;;;;10.25;51.90;100992.66;7396973;19;19998;-57
2022/11/15 05:05:42;;;;;;;21.55;11.05;;;;;;;10.28;51.70;101000.13;7393513;19;19998;-57
2022/11/15 05:08:08;;;;;;;21.85;11.80;;;;;;;10.31;51.58;100995.97;7393955;19;20506;-56
2022/11/15 05:10:34;;;;;;;20.33;11.40;;;;;;;10.27;51.85;100998.56;7396272;19;20066;-56
2022/11/15 05:12:59;;;;;;;21.10;10.85;;;;;;;10.29;52.12;100999.03;7395350;19;20473;-56
2022/11/15 05:15:25;;;;;;;18.42;9.88;;;;;;;10.29;52.08;100996.28;7394352;19;20007;-56
2022/11/15 05:17:51;;;;;;;20.50;10.20;;;;;;;10.33;52.01;100999.16;7393578;19;20011;-56
2022/11/15 05:20:16;;;;;;;22.83;10.98;;;;;;;10.37;52.05;101003.59;7397405;19;19991;-56
2022/11/15 05:22:42;;;;;;;19.20;10.43;;;;;;;10.36;51.93;101001.22;7394999;19;20010;-56
2022/11/15 05:25:08;;;;;;;19.98;10.40;;;;;;;10.43;51.91;100989.75;7396206;19;20029;-56
2022/11/15 05:27:34;;;;;;;16.40;10.02;;;;;;;10.37;52.21;100991.91;7395661;19;20335;-56
2022/11/15 05:30:00;;;;;;;19.42;10.77;;;;;;;10.35;52.59;100984.06;7395953;19;20006;-56
2022/11/15 05:32:27;;;;;;;17.50;10.30;;;;;;;10.42;52.25;100993.59;7393018;19;20030;-56
2022/11/15 05:34:54;;;;;;;18.70;10.02;;;;;;;10.47;52.19;100979.75;7395719;19;20022;-57
2022/11/15 05:37:20;;;;;;;19.85;10.45;;;;;;;10.47;52.27;100971.56;7392547;19;19999;-57
2022/11/15 05:39:46;;;;;;;19.48;10.18;;;;;;;10.45;52.40;100974.66;7395904;19;20463;-57
2022/11/15 05:42:14;;;;;;;17.88;10.13;;;;;;;10.51;52.12;100967.03;7395235;19;20003;-57
2022/11/15 05:44:44;;;;;;;16.00;9.77;;;;;;;10.50;52.05;100984.53;7393848;19;19999;-57
2022/11/15 05:47:14;;;;;;;18.02;10.40;;;;;;;10.47;52.43;100982.47;7394654;19;20022;-54
2022/11/15 05:49:44;;;;;;;17.70;10.32;;;;;;;10.49;52.43;100980.22;7396160;19;20002;-56
2022/11/15 05:52:13;;;;;;;17.77;10.38;;;;;;;10.56;52.38;100977.75;7395234;19;19999;-57
2022/11/15 05:54:39;;;;;;;18.77;10.48;;;;;;;10.53;52.32;100970.22;7390583;19;20443;-57
2022/11/15 05:57:05;;;;;;;15.80;9.27;;;;;;;10.47;52.64;100975.09;7391553;19;20006;-57
2022/11/15 05:59:32;;;;;;;17.10;10.23;;;;;;;10.48;52.65;100981.34;7393512;19;20017;-57
2022/11/15 06:01:58;;;;;;;17.25;9.75;;;;;;;10.47;52.97;100979.75;7394286;19;20593;-57
2022/11/15 06:04:24;;;;;;;19.88;10.23;;;;;;;10.49;52.63;100969.31;7395450;19;20009;-57
2022/11/15 06:06:49;;;;;;;16.92;10.00;;;;;;;10.50;53.04;100982.63;7393627;19;20074;-57
2022/11/15 06:09:15;;;;;;;18.42;11.02;;;;;;;10.55;52.85;100981.59;7395177;19;20002;-57
2022/11/15 06:11:41;;;;;;;17.52;9.30;;;;;;;10.63;52.80;100983.44;7394303;19;19994;-56
2022/11/15 06:14:06;;;;;;;19.60;10.60;;;;;;;10.65;52.80;100986.66;7393044;19;20459;-57
2022/11/15 06:16:32;;;;;;;19.60;10.65;;;;;;;10.69;52.51;100979.38;7392124;19;20007;-57
2022/11/15 06:18:58;;;;;;;17.75;9.88;;;;;;;10.69;52.72;100978.59;7393547;19;20054;-57
2022/11/15 06:21:23;;;;;;;19.17;10.02;;;;;;;10.64;52.97;100979.59;7392318;19;20028;-57
2022/11/15 06:23:49;;;;;;;17.40;10.13;;;;;;;10.63;52.91;100977.97;7393192;19;20009;-57
2022/11/15 06:26:15;;;;;;;18.85;10.10;;;;;;;10.65;52.97;100991.28;7393889;19;20023;-57
2022/11/15 06:28:40;;;;;;;21.42;9.75;;;;;;;10.69;53.05;100997.69;7392559;19;20069;-57
2022/11/15 06:31:09;;;;;;;19.70;10.40;;;;;;;10.69;53.12;100992.22;7392450;19;19999;-56
2022/11/15 06:33:35;;;;;;;19.23;9.38;;;;;;;10.71;53.24;101000.88;7392412;19;20036;-56
2022/11/15 06:36:05;;;;;;;19.92;9.75;;;;;;;10.70;53.20;100997.34;7393253;19;20354;-57
2022/11/15 06:38:31;;;;;;;17.23;10.13;;;;;;;10.69;53.56;100997.69;7393239;19;19998;-57
2022/11/15 06:41:06;;;;;;;19.38;10.88;;;;;;;10.67;53.44;100999.94;7393420;19;20006;-57
2022/11/15 06:43:32;;;;;;;16.42;10.20;;;;;;;10.69;53.50;101001.22;7391730;19;20003;-57
2022/11/15 06:46:01;;;;;;;20.13;10.88;;;;;;;10.72;53.46;100997.03;7393224;19;20003;-57
2022/11/15 06:48:28;;;;;;;17.63;9.88;;;;;;;10.71;53.48;100996.19;7390958;19;19999;-57
2022/11/15 06:50:56;;;;;;;18.52;10.50;;;;;;;10.77;53.50;101004.22;7393448;19;20022;-57
2022/11/15 06:53:22;;;;;;;18.42;10.43;;;;;;;10.78;53.26;101006.59;7389700;19;20062;-57
2022/11/15 06:55:48;;;;;;;17.77;9.27;;;;;;;10.83;53.45;100997.41;7392410;19;20009;-55
2022/11/15 06:58:14;;;;;;;19.67;10.38;;;;;;;10.81;53.43;100988.75;7392053;19;20030;-55
2022/11/15 07:00:41;;;;;;;17.58;10.18;;;;;;;10.86;53.51;100996.72;7391464;19;20470;-56
2022/11/15 07:03:06;;;;;;;17.77;10.20;;;;;;;10.88;53.61;101002.66;7390035;19;20002;-55
2022/11/15 07:05:32;;;;;;;17.90;10.38;;;;;;;10.86;53.29;101000.25;7392424;19;20017;-56
2022/11/15 07:07:59;;;;;;;20.77;10.57;;;;;;;10.86;53.41;100999.47;7392558;19;19995;-54
2022/11/15 07:10:25;;;;;;;19.50;10.65;;;;;;;10.89;53.64;101006.97;7391125;19;20022;-55
2022/11/15 07:12:52;;;;;;;17.88;10.77;;;;;;;10.91;53.60;101001.97;7391974;19;20005;-56
2022/11/15 07:15:24;;;;;;;18.23;10.35;;;;;;;10.88;53.72;101005.38;7392059;19;20014;-55
2022/11/15 07:17:50;;;;;;;21.23;11.18;;;;;;;10.95;53.58;101000.16;7392132;19;20002;-58
2022/11/15 07:20:17;;;;;;;19.58;10.45;;;;;;;10.90;53.84;101009.38;7393282;19;20070;-55
2022/11/15 07:22:45;;;;;;;19.63;10.85;;;;;;;10.93;53.78;101003.22;7390029;19;19995;-55
2022/11/15 07:25:11;;;;;;;18.15;10.35;;;;;;;10.96;54.06;101007.22;7391777;19;20046;-56
2022/11/15 07:27:38;;;;;;;20.25;10.40;;;;;;;11.00;53.67;101010.06;7389889;19;20002;-56
2022/11/15 07:30:04;;;;;;;20.95;11.57;;;;;;;11.04;53.97;101000.06;7391136;19;19999;-56
2022/11/15 07:32:30;;;;;;;18.38;10.20;;;;;;;11.03;54.04;101001.97;7391854;19;20467;-56
2022/11/15 07:34:56;;;;;;;18.88;11.80;;;;;;;11.08;53.75;101004.50;7392452;19;20012;-56
2022/11/15 07:37:22;;;;;;;17.25;10.32;;;;;;;11.12;54.10;101004.59;7389466;19;20336;-56
2022/11/15 07:39:47;;;;;;;17.20;10.27;;;;;;;11.18;53.70;101008.72;7390350;19;20470;-56
2022/11/15 07:44:57;;;;;;;;;;;;;;;11.35;54.29;101006.91;7392255;19;20054;-56
2022/11/15 07:47:23;;;;;;;20.77;11.18;;;;;;;11.36;53.70;101008.50;7390756;19;19927;-59
2022/11/15 07:49:48;;;;;;;21.85;10.93;;;;;;;11.39;53.68;101002.34;7389233;19;20007;-58
2022/11/15 07:52:14;;;;;;;22.20;11.55;;;;;;;11.41;53.64;101008.28;7391478;19;20054;-57
2022/11/15 07:54:40;;;;;;;17.27;10.60;;;;;;;11.48;53.65;101005.78;7388958;19;20507;-57
2022/11/15 07:57:06;;;;;;;19.98;11.50;;;;;;;11.51;53.37;101010.56;7387458;19;19998;-58
2022/11/15 07:59:32;;;;;;;25.25;12.20;;;;;;;11.49;53.72;101007.38;7389629;19;19999;-58
2022/11/15 08:01:58;;;;;;;21.27;11.80;;;;;;;11.48;53.69;101009.28;7391734;19;20026;-58
2022/11/15 08:04:24;;;;;;;23.92;10.82;;;;;;;11.51;53.60;101007.03;7390949;19;20002;-58
2022/11/15 08:06:49;;;;;;;22.52;12.68;;;;;;;11.52;53.66;101003.16;7391068;19;20091;-58
2022/11/15 08:09:15;;;;;;;23.60;12.65;;;;;;;11.53;53.81;100997.34;7388886;19;20002;-58
2022/11/15 08:11:41;;;;;;;18.60;11.40;;;;;;;11.57;53.76;101001.00;7391322;19;20002;-58
2022/11/15 08:14:07;;;;;;;19.85;11.38;;;;;;;11.61;53.62;101004.63;7388774;19;20079;-58
2022/11/15 08:16:32;;;;;;;20.35;11.30;;;;;;;11.63;53.62;101007.00;7389671;19;20025;-59
2022/11/15 08:18:58;;;;;;;19.23;10.90;;;;;;;11.64;53.85;101008.63;7391025;19;20313;-58
2022/11/15 08:21:24;;;;;;;20.00;11.40;;;;;;;11.67;53.60;101007.91;7389899;19;20070;-58
2022/11/15 08:23:50;;;;;;;21.17;10.60;;;;;;;11.68;53.97;101009.50;7388821;19;19998;-58
2022/11/15 08:26:16;;;;;;;23.77;12.10;;;;;;;11.71;53.61;101006.09;7390070;19;20007;-58
2022/11/15 08:28:42;;;;;;;23.63;11.15;;;;;;;11.73;53.47;101011.22;7390132;19;20013;-58
2022/11/15 08:31:14;;;;;;;18.75;10.27;;;;;;;11.79;53.56;100999.69;7388785;19;20003;-57
2022/11/15 08:33:39;;;;;;;18.67;10.05;;;;;;;11.74;53.86;101007.31;7389355;19;20003;-58
2022/11/15 08:36:05;;;;;;;16.63;10.27;;;;;;;11.83;53.45;101008.81;7389025;19;20001;-58
2022/11/15 08:38:31;;;;;;;19.27;10.20;;;;;;;11.87;53.40;101010.88;7390414;19;20002;-58
2022/11/15 08:41:05;;;;;;;16.55;10.35;;;;;;;11.84;53.57;101013.16;7393373;19;20011;-58
2022/11/15 08:43:31;;;;;;;18.95;9.90;;;;;;;11.85;53.84;101017.47;7394167;19;20093;-58
2022/11/15 08:45:57;;;;;;;19.70;10.05;;;;;;;11.83;53.75;101008.81;7395401;19;20007;-58
2022/11/15 08:48:23;;;;;;;19.90;10.43;;;;;;;11.87;53.72;101005.41;7395744;19;19999;-57
2022/11/15 08:50:49;;;;;;;18.90;9.32;;;;;;;11.93;53.41;100998.56;7397065;19;20312;-58
2022/11/15 08:53:14;;;;;;;20.00;10.15;;;;;;;11.94;53.55;101008.34;7394938;19;20328;-57
2022/11/15 08:55:40;;;;;;;18.75;10.13;;;;;;;12.00;53.29;101005.03;7395980;19;19999;-57
2022/11/15 08:58:06;;;;;;;17.23;10.05;;;;;;;12.03;53.50;101006.28;7396839;19;19998;-58
2022/11/15 09:00:40;;;;;;;18.30;9.80;;;;;;;12.05;53.29;101012.19;7394938;19;20023;-58
2022/11/15 09:03:07;;;;;;;16.85;9.95;;;;;;;12.13;53.33;101014.00;7395040;19;20041;-58
2022/11/15 09:05:35;;;;;;;20.10;9.73;;;;;;;12.18;53.25;101004.75;7397483;19;20066;-58
2022/11/15 09:08:01;;;;;;;14.95;9.65;;;;;;;12.22;52.90;101009.19;7394399;19;19999;-58
2022/11/15 09:10:27;;;;;;;16.67;9.60;;;;;;;12.28;52.97;101001.53;7392958;19;20376;-58
2022/11/15 09:12:52;;;;;;;18.38;9.90;;;;;;;12.30;52.75;101007.44;7396169;19;19999;-58
2022/11/15 09:15:19;;;;;;;20.83;10.13;;;;;;;12.35;52.79;101003.66;7395376;19;20002;-58
2022/11/15 09:17:45;;;;;;;16.13;9.25;;;;;;;12.33;52.85;101011.44;7393981;19;20007;-58
2022/11/15 09:20:11;;;;;;;17.13;9.80;;;;;;;12.33;52.85;101008.69;7396210;19;20006;-58
2022/11/15 09:22:38;;;;;;;17.77;9.48;;;;;;;12.32;53.05;101007.88;7395531;19;20018;-58
2022/11/15 09:25:04;;;;;;;16.08;9.13;;;;;;;12.30;53.13;101007.44;7394454;19;20029;-58
2022/11/15 09:27:30;;;;;;;15.70;9.13;;;;;;;12.29;53.03;101005.06;7395771;19;19994;-58
2022/11/15 09:29:56;;;;;;;18.10;9.63;;;;;;;12.29;53.36;101005.88;7395824;19;20009;-58
2022/11/15 09:32:25;;;;;;;16.17;9.32;;;;;;;12.10;53.55;101006.47;7394339;19;20027;-58
2022/11/15 09:34:50;;;;;;;16.65;8.90;;;;;;;12.19;53.36;101012.63;7396520;19;20016;-58
2022/11/15 09:37:16;;;;;;;16.08;9.50;;;;;;;12.25;53.38;101009.66;7392345;19;20463;-58
2022/11/15 09:39:42;;;;;;;16.02;9.38;;;;;;;12.31;53.23;101008.25;7394470;19;20499;-58
2022/11/15 09:42:29;;;;;;;16.92;8.73;;;;;;;12.28;53.42;101004.25;7392876;19;20011;-58
2022/11/15 09:45:04;;;;;;;15.70;9.25;;;;;;;12.35;53.14;100995.47;7396163;19;20536;-58
2022/11/15 09:47:54;;;;;;;17.02;9.02;;;;;;;12.39;53.13;100999.91;7393995;19;20014;-58
2022/11/15 09:50:38;;;;;;;19.13;8.95;;;;;;;12.45;53.02;100994.94;7395067;19;20121;-58
2022/11/15 09:53:04;;;;;;;18.33;8.40;;;;;;;12.61;52.98;101000.47;7392641;19;20014;-59
2022/11/15 09:55:47;;;;;;;16.48;9.35;;;;;;;12.83;52.52;100995.56;7395443;19;19994;-59
2022/11/15 09:58:28;;;;;;;16.42;9.00;;;;;;;12.93;52.33;100997.81;7394152;19;19995;-58
2022/11/15 10:00:57;;;;;;;15.80;9.05;;;;;;;12.82;52.41;100989.28;7394676;19;20343;-58
2022/11/15 10:03:33;;;;;;;14.50;8.05;;;;;;;12.73;52.63;100991.41;7392712;19;20001;-60
2022/11/15 10:06:02;;;;;;;14.80;8.05;;;;;;;12.67;52.69;100990.84;7392915;19;20518;-59
2022/11/15 10:08:46;;;;;;;15.50;8.15;;;;;;;12.66;52.82;100988.44;7393779;19;19994;-59
2022/11/15 10:11:20;;;;;;;16.52;8.73;;;;;;;12.66;52.82;100991.19;7394757;19;20392;-59
2022/11/15 10:13:49;;;;;;;16.88;8.35;;;;;;;12.68;52.60;100988.91;7392305;19;20305;-59
2022/11/15 10:16:52;;;;;;;12.95;8.25;;;;;;;12.72;52.88;100978.84;7392647;19;20013;-58
2022/11/15 10:19:50;;;;;;;15.07;8.18;;;;;;;12.86;52.38;100986.63;7393616;19;20036;-58
2022/11/15 10:22:16;;;;;;;15.50;8.35;;;;;;;12.87;52.38;100975.34;7394727;19;20070;-58
2022/11/15 10:24:44;;;;;;;15.00;8.48;;;;;;;12.84;52.39;100970.56;7393346;19;19998;-58
2022/11/15 10:27:13;;;;;;;14.35;7.90;;;;;;;12.85;52.64;100977.63;7393814;19;20062;-58
2022/11/15 10:29:47;;;;;;;13.68;7.72;;;;;;;12.75;52.78;100969.94;7393577;19;20006;-58
2022/11/15 10:32:15;;;;;;;15.80;7.90;;;;;;;12.79;52.59;100973.53;7394056;19;20006;-58
2022/11/15 10:34:41;;;;;;;14.20;7.97;;;;;;;12.81;52.59;100976.75;7392761;19;20514;-58
2022/11/15 10:37:07;;;;;;;14.13;8.25;;;;;;;12.84;52.57;100965.09;7391699;19;20023;-58
2022/11/15 10:39:33;;;;;;;17.95;8.32;;;;;;;12.90;52.54;100957.41;7394399;19;19995;-58
2022/11/15 10:42:25;;;;;;;13.50;7.30;;;;;;;13.03;52.20;100955.41;7391414;19;20133;-58
2022/11/15 10:44:50;;;;;;;14.73;7.20;;;;;;;13.14;52.02;100946.28;7392900;19;20490;-58
2022/11/15 10:47:22;;;;;;;15.15;7.38;;;;;;;13.14;52.10;100950.94;7392376;19;19990;-58
2022/11/15 10:50:27;;;;;;;12.88;6.88;;;;;;;13.10;52.29;100936.38;7393476;19;20089;-58
2022/11/15 10:52:53;;;;;;;;;;;;;;;13.08;52.50;100935.94;7393300;19;19998;-56
2022/11/15 10:55:27;;;;;;;13.02;7.45;;;;;;;13.02;52.49;100924.44;7393362;19;19914;-58
2022/11/15 10:57:54;;;;;;;;;;;;;;;13.07;52.29;100920.63;7392147;19;20043;-59
2022/11/15 11:00:19;;;;;;;13.07;7.22;;;;;;;13.22;51.85;100925.28;7393294;19;20302;-57
2022/11/15 11:03:08;;;;;;;14.27;7.70;;;;;;;13.41;51.93;100919.09;7391148;19;20002;-57
2022/11/15 11:05:40;;;;;;;19.35;7.82;;;;;;;13.49;51.57;100917.28;7392207;19;20002;-58
2022/11/15 11:08:24;;;;;;;14.90;6.80;;;;;;;13.45;51.71;100911.72;7391326;19;19995;-57
2022/11/15 11:10:54;;;;;;;15.85;7.20;;;;;;;13.47;51.42;100908.63;7391130;19;19995;-57
2022/11/15 11:13:28;;;;;;;12.98;6.30;;;;;;;13.54;51.49;100911.50;7391144;19;20009;-57
2022/11/15 11:16:19;;;;;;;13.63;8.18;;;;;;;13.37;51.69;100909.19;7389570;19;20330;-57
2022/11/15 11:19:18;;;;;;;12.98;7.03;;;;;;;13.50;51.56;100899.69;7391910;19;19995;-56
2022/11/15 11:21:59;;;;;;;20.13;11.52;;;;;;;13.52;51.64;100900.91;7391749;19;19999;-56
2022/11/15 11:24:25;;;;;;;19.45;9.57;;;;;;;13.51;51.43;100895.81;7391908;19;20034;-57
2022/11/15 11:27:18;;;;;;;14.40;7.00;;;;;;;13.58;51.44;100898.69;7392220;19;20091;-57
2022/11/15 11:30:02;;;;;;;27.55;15.88;;;;;;;13.68;51.37;100895.38;7392045;19;19994;-57
2022/11/15 11:32:39;;;;;;;13.77;7.13;;;;;;;13.65;51.55;100890.59;7391446;19;20005;-57
2022/11/15 11:35:08;;;;;;;14.43;7.55;;;;;;;13.69;51.11;100876.94;7391535;19;20002;-57
2022/11/15 11:37:52;;;;;;;31.48;17.60;;;;;;;13.69;51.47;100882.44;7388726;19;20014;-57
2022/11/15 11:40:30;;;;;;;26.90;13.75;;;;;;;13.68;51.15;100880.88;7391535;19;20006;-57